createdAt,value
2023-04-07T00:00:48.606Z,100388.16
2023-04-07T00:05:50.616Z,100382.34
2023-04-07T00:10:52.089Z,100375.31
2023-04-07T00:15:54.594Z,100373.42
2023-04-07T00:20:56.461Z,100369.80
2023-04-07T00:25:57.952Z,100365.17
2023-04-07T00:30:59.587Z,100366.85
2023-04-07T00:36:01.355Z,100360.52
2023-04-07T00:41:02.953Z,100356.23
2023-04-07T00:46:04.806Z,100356.90
2023-04-07T00:51:07.067Z,100359.98
2023-04-07T00:56:08.742Z,100354.84
2023-04-07T01:01:20.258Z,100353.79
2023-04-07T01:06:26.888Z,100351.18
2023-04-07T01:11:52.047Z,100350.62
2023-04-07T01:16:58.831Z,100349.42
2023-04-07T01:22:01.239Z,100347.16
2023-04-07T01:27:17.838Z,100345.91
2023-04-07T01:32:24.222Z,100350.34
2023-04-07T01:37:28.018Z,100342.10
2023-04-07T01:42:31.422Z,100339.89
2023-04-07T01:47:34.526Z,100341.73
2023-04-07T01:52:37.095Z,100337.80
2023-04-07T01:57:38.597Z,100337.44
2023-04-07T02:02:44.456Z,100337.40
2023-04-07T02:08:01.185Z,100336.35
2023-04-07T02:13:06.816Z,100334.23
2023-04-07T02:18:10.887Z,100337.44
2023-04-07T02:23:13.176Z,100336.05
2023-04-07T02:28:14.666Z,100334.31
2023-04-07T02:33:17.188Z,100338.55
2023-04-07T02:38:18.721Z,100334.77
2023-04-07T02:43:21.224Z,100329.80
2023-04-07T02:48:22.770Z,100325.18
2023-04-07T02:53:24.263Z,100324.11
2023-04-07T02:58:25.944Z,100327.83
2023-04-07T03:03:27.838Z,100331.21
2023-04-07T03:08:29.679Z,100328.25
2023-04-07T03:13:32.290Z,100327.30
2023-04-07T03:18:34.112Z,100327.86
2023-04-07T03:23:35.725Z,100330.15
2023-04-07T03:28:37.209Z,100330.58
2023-04-07T03:33:38.713Z,100330.16
2023-04-07T03:38:40.359Z,100329.79
2023-04-07T03:43:42.024Z,100327.55
2023-04-07T03:48:43.518Z,100325.34
2023-04-07T03:53:45.161Z,100324.73
2023-04-07T03:58:47.208Z,100326.36
2023-04-07T04:03:49.953Z,100325.98
2023-04-07T04:08:51.886Z,100325.91
2023-04-07T04:13:53.866Z,100330.60
2023-04-07T04:18:55.747Z,100329.98
2023-04-07T04:23:57.432Z,100333.39
2023-04-07T04:28:58.936Z,100335.84
2023-04-07T04:34:00.433Z,100341.59
2023-04-07T04:39:02.366Z,100343.23
2023-04-07T04:44:04.217Z,100344.18
2023-04-07T04:49:06.573Z,100345.50
2023-04-07T04:54:08.736Z,100349.24
2023-04-07T04:59:10.878Z,100349.84
2023-04-07T05:04:12.926Z,100351.01
2023-04-07T05:09:15.143Z,100348.23
2023-04-07T05:14:16.671Z,100345.67
2023-04-07T05:19:18.197Z,100342.83
2023-04-07T05:24:19.756Z,100344.95
2023-04-07T05:29:21.276Z,100347.99
2023-04-07T05:34:23.277Z,100346.73
2023-04-07T05:39:24.954Z,100350.23
2023-04-07T05:44:26.450Z,100350.11
2023-04-07T05:49:28.338Z,100352.39
2023-04-07T05:54:30.194Z,100349.96
2023-04-07T05:59:32.159Z,100350.65
2023-04-07T06:04:35.503Z,100348.61
2023-04-07T06:09:37.024Z,100351.90
2023-04-07T06:14:39.258Z,100349.75
2023-04-07T06:19:41.035Z,100348.05
2023-04-07T06:24:43.016Z,100351.63
2023-04-07T06:29:44.915Z,100349.92
2023-04-07T06:34:46.407Z,100354.79
2023-04-07T06:39:47.947Z,100350.22
2023-04-07T06:44:49.493Z,100344.06
2023-04-07T06:49:51.216Z,100344.64
2023-04-07T06:54:52.858Z,100349.45
2023-04-07T06:59:54.344Z,100346.18
2023-04-07T07:04:55.872Z,100348.02
2023-04-07T07:09:57.361Z,100346.86
2023-04-07T07:14:58.867Z,100344.86
2023-04-07T07:20:00.392Z,100349.48
2023-04-07T07:25:01.883Z,100348.27
2023-04-07T07:30:04.169Z,100353.42
2023-04-07T07:35:06.282Z,100356.18
2023-04-07T07:40:08.640Z,100355.34
2023-04-07T07:45:12.204Z,100358.02
2023-04-07T07:50:13.712Z,100360.33
2023-04-07T07:55:15.541Z,100359.28
2023-04-07T08:00:17.253Z,100361.46
2023-04-07T08:05:19.051Z,100365.81
2023-04-07T08:10:20.818Z,100367.64
2023-04-07T08:15:22.503Z,100366.05
2023-04-07T08:20:24.267Z,100362.07
2023-04-07T08:25:26.391Z,100361.82
2023-04-07T08:30:28.212Z,100361.41
2023-04-07T08:35:29.717Z,100361.56
2023-04-07T08:40:33.048Z,100357.88
2023-04-07T08:45:39.309Z,100356.80
2023-04-07T08:50:45.427Z,100357.77
2023-04-07T08:55:47.373Z,100357.62
2023-04-07T09:00:50.113Z,100359.51
2023-04-07T09:05:52.570Z,100360.38
2023-04-07T09:10:55.379Z,100360.90
2023-04-07T09:15:57.914Z,100357.77
2023-04-07T09:21:02.057Z,100357.30
2023-04-07T09:26:23.261Z,100355.54
2023-04-07T09:31:48.323Z,100353.86
2023-04-07T09:36:50.583Z,100356.30
2023-04-07T09:41:53.051Z,100358.71
2023-04-07T09:46:57.066Z,100361.64
2023-04-07T09:52:04.960Z,100365.69
2023-04-07T09:57:08.733Z,100364.73
2023-04-07T10:02:12.050Z,100367.53
2023-04-07T10:07:15.930Z,100365.71
2023-04-07T10:12:18.729Z,100370.59
2023-04-07T10:17:22.372Z,100373.25
2023-04-07T10:22:25.894Z,100374.59
2023-04-07T10:27:34.710Z,100375.88
2023-04-07T10:32:47.674Z,100380.97
2023-04-07T10:38:07.430Z,100379.06
2023-04-07T10:43:11.456Z,100379.52
2023-04-07T10:48:16.504Z,100384.52
2023-04-07T10:53:18.568Z,100384.44
2023-04-07T10:58:30.209Z,100388.23
2023-04-07T11:03:34.697Z,100393.60
2023-04-07T11:08:46.762Z,100394.05
2023-04-07T11:13:51.893Z,100396.76
2023-04-07T11:18:57.803Z,100400.02
2023-04-07T11:23:59.556Z,100399.13
2023-04-07T11:29:02.227Z,100398.74
2023-04-07T11:34:05.191Z,100395.18
2023-04-07T11:39:19.412Z,100393.16
2023-04-07T11:44:21.038Z,100393.29
2023-04-07T11:49:28.201Z,100396.00
2023-04-07T11:54:52.262Z,100400.77
2023-04-07T12:00:07.344Z,100413.97
2023-04-07T12:05:10.716Z,100430.75
2023-04-07T12:10:25.900Z,100434.21
2023-04-07T12:15:27.689Z,100439.83
2023-04-07T12:20:29.797Z,100455.95
2023-04-07T12:25:31.370Z,100455.14
2023-04-07T12:30:33.430Z,100468.19
2023-04-07T12:35:35.533Z,100465.76
2023-04-07T12:40:38.323Z,100473.30
2023-04-07T12:45:39.981Z,100478.48
2023-04-07T12:50:42.081Z,100480.29
2023-04-07T12:55:43.594Z,100480.20
2023-04-07T13:00:47.019Z,100477.36
2023-04-07T13:05:48.684Z,100478.52
2023-04-07T13:10:50.158Z,100478.91
2023-04-07T13:15:52.590Z,100477.15
2023-04-07T13:21:10.713Z,100483.73
2023-04-07T13:26:15.623Z,100488.07
2023-04-07T13:31:18.082Z,100493.09
2023-04-07T13:36:23.295Z,100494.08
2023-04-07T13:41:26.736Z,100503.20
2023-04-07T13:46:29.245Z,100524.74
2023-04-07T13:51:31.296Z,100538.73
2023-04-07T13:56:33.089Z,100541.45
2023-04-07T14:01:35.748Z,100548.99
2023-04-07T14:06:38.050Z,100548.59
2023-04-07T14:11:39.979Z,100549.81
2023-04-07T14:16:41.534Z,100554.41
2023-04-07T14:21:43.098Z,100552.41
2023-04-07T14:26:46.381Z,100559.95
2023-04-07T14:31:48.775Z,100561.73
2023-04-07T14:36:58.987Z,100563.27
2023-04-07T14:42:01.293Z,100565.64
2023-04-07T14:47:02.821Z,100565.13
2023-04-07T14:52:05.029Z,100561.27
2023-04-07T14:57:06.679Z,100565.39
2023-04-07T15:02:08.282Z,100571.27
2023-04-07T15:07:09.998Z,100572.27
2023-04-07T15:12:11.518Z,100576.59
2023-04-07T15:17:13.194Z,100576.63
2023-04-07T15:22:15.019Z,100581.23
2023-04-07T15:27:16.519Z,100586.34
2023-04-07T15:32:18.082Z,100596.13
2023-04-07T15:37:19.972Z,100598.92
2023-04-07T15:42:21.506Z,100599.69
2023-04-07T15:47:23.065Z,100601.74
2023-04-07T15:52:25.290Z,100602.88
2023-04-07T15:57:27.221Z,100601.05
2023-04-07T16:02:29.216Z,100607.42
2023-04-07T16:07:31.445Z,100601.75
2023-04-07T16:12:34.436Z,100609.88
2023-04-07T16:17:38.093Z,100621.34
2023-04-07T16:22:44.297Z,100628.36
2023-04-07T16:27:47.707Z,100636.63
2023-04-07T16:32:49.225Z,100643.79
2023-04-07T16:37:51.670Z,100653.60
2023-04-07T16:42:53.196Z,100662.98
2023-04-07T16:47:55.093Z,100676.77
2023-04-07T16:52:57.669Z,100688.84
2023-04-07T16:57:59.491Z,100697.20
2023-04-07T17:03:01.122Z,100707.64
2023-04-07T17:08:02.836Z,100713.96
2023-04-07T17:13:04.323Z,100723.91
2023-04-07T17:18:05.828Z,100730.99
2023-04-07T17:23:09.344Z,100730.70
2023-04-07T17:28:11.163Z,100742.90
2023-04-07T17:33:12.682Z,100751.80
2023-04-07T17:38:14.335Z,100756.95
2023-04-07T17:43:16.354Z,100766.44
2023-04-07T17:48:17.887Z,100776.41
2023-04-07T17:53:19.806Z,100781.23
2023-04-07T17:58:21.470Z,100789.02
2023-04-07T18:03:23.260Z,100790.01
2023-04-07T18:08:26.475Z,100804.45
2023-04-07T18:13:28.027Z,100816.46
2023-04-07T18:18:29.566Z,100822.03
2023-04-07T18:23:31.145Z,100825.92
2023-04-07T18:28:33.544Z,100833.88
2023-04-07T18:33:36.333Z,100841.63
2023-04-07T18:38:38.367Z,100852.86
2023-04-07T18:43:40.149Z,100857.02
2023-04-07T18:48:44.295Z,100861.10
2023-04-07T18:53:45.883Z,100869.17
2023-04-07T18:58:49.210Z,100875.57
2023-04-07T19:03:52.020Z,100884.52
2023-04-07T19:08:54.266Z,100887.81
2023-04-07T19:13:56.612Z,100895.70
2023-04-07T19:18:58.456Z,100901.23
2023-04-07T19:24:00.001Z,100906.13
2023-04-07T19:29:03.492Z,100911.20
2023-04-07T19:34:05.036Z,100920.71
2023-04-07T19:39:06.961Z,100922.98
2023-04-07T19:44:08.618Z,100927.33
2023-04-07T19:49:11.670Z,100935.34
2023-04-07T19:54:13.918Z,100939.70
2023-04-07T19:59:15.473Z,100950.23
2023-04-07T20:04:17.947Z,100959.02
2023-04-07T20:09:20.542Z,100964.07
2023-04-07T20:14:23.800Z,100972.10
2023-04-07T20:19:25.859Z,100980.08
2023-04-07T20:24:28.357Z,100988.90
2023-04-07T20:29:29.975Z,100991.39
2023-04-07T20:34:32.249Z,100999.98
2023-04-07T20:39:34.241Z,100998.49
2023-04-07T20:44:35.961Z,100999.35
2023-04-07T20:49:39.584Z,101006.02
2023-04-07T20:54:42.792Z,101006.70
2023-04-07T20:59:44.624Z,101008.08
2023-04-07T21:04:46.308Z,101005.98
2023-04-07T21:09:47.859Z,101007.51
2023-04-07T21:14:49.777Z,101014.69
2023-04-07T21:19:51.273Z,101017.59
2023-04-07T21:24:53.964Z,101022.89
2023-04-07T21:29:57.253Z,101028.70
2023-04-07T21:35:00.142Z,101031.09
2023-04-07T21:40:01.876Z,101041.70
2023-04-07T21:45:03.685Z,101042.73
2023-04-07T21:50:06.156Z,101049.05
2023-04-07T21:55:10.434Z,101047.16
2023-04-07T22:00:14.106Z,101050.58
2023-04-07T22:05:17.019Z,101056.23
2023-04-07T22:10:18.999Z,101054.52
2023-04-07T22:15:21.305Z,101056.07
2023-04-07T22:20:23.102Z,101061.73
2023-04-07T22:25:25.533Z,101064.12
2023-04-07T22:30:27.249Z,101065.31
2023-04-07T22:35:28.816Z,101062.73
2023-04-07T22:40:30.503Z,101069.08
2023-04-07T22:45:32.487Z,101075.40
2023-04-07T22:50:33.987Z,101072.16
2023-04-07T22:55:35.572Z,101072.50
2023-04-07T23:00:37.279Z,101075.41
2023-04-07T23:05:38.935Z,101076.95
2023-04-07T23:10:40.459Z,101078.16
2023-04-07T23:15:41.975Z,101078.17
2023-04-07T23:20:51.199Z,101083.14
2023-04-07T23:25:52.695Z,101087.27
2023-04-07T23:30:55.046Z,101088.98
2023-04-07T23:35:56.931Z,101088.98
2023-04-07T23:40:58.455Z,101086.58
2023-04-07T23:46:00.581Z,101086.92
2023-04-07T23:51:02.102Z,101083.16
2023-04-07T23:56:03.780Z,101081.28
